Time;durP1;ratioP1;P1;durP2;ratioP2;P2;SDS_P1;SDS_P2;PMS_P1;PMS_P2;Temp;Humidity;BMP_temperature;BMP_pressure;BME280_temperature;BME280_humidity;BME280_pressure;Samples;Min_cycle;Max_cycle;Signal;HPM_P1;HPM_P2
2021/11/14 00:02:07;;;;;;;17.73;15.20;;;;;;;;;;4997180;28;20197;-71
2021/11/14 00:04:32;;;;;;;18.47;15.93;;;;;;;;;;4989531;28;20177;-71
2021/11/14 00:06:57;;;;;;;18.17;14.70;;;;;;;;;;4992814;28;20631;-71
2021/11/14 00:09:23;;;;;;;17.87;15.20;;;;;;;;;;4987073;28;20664;-71
2021/11/14 00:11:48;;;;;;;19.00;14.60;;;;;;;;;;4989073;28;20288;-71
2021/11/14 00:14:13;;;;;;;17.83;16.00;;;;;;;;;;4993165;28;20178;-71
2021/11/14 00:16:38;;;;;;;21.17;15.40;;;;;;;;;;4992747;28;20264;-71
2021/11/14 00:19:04;;;;;;;19.57;15.40;;;;;;;;;;4991786;28;20201;-70
2021/11/14 00:21:30;;;;;;;17.70;14.83;;;;;;;;;;4993094;28;20679;-71
2021/11/14 00:23:56;;;;;;;20.77;17.00;;;;;;;;;;4989596;28;20186;-70
2021/11/14 00:26:22;;;;;;;17.60;15.77;;;;;;;;;;4992630;28;20432;-71
2021/11/14 00:28:48;;;;;;;18.70;15.43;;;;;;;;;;4994119;28;20454;-71
2021/11/14 00:31:14;;;;;;;22.60;17.33;;;;;;;;;;4991600;28;20201;-71
2021/11/14 00:33:43;;;;;;;22.13;17.77;;;;;;;;;;4989551;28;20882;-71
2021/11/14 00:36:13;;;;;;;21.80;16.57;;;;;;;;;;4989397;28;21074;-71
2021/11/14 00:38:39;;;;;;;19.80;15.60;;;;;;;;;;4993637;28;21017;-71
2021/11/14 00:41:05;;;;;;;23.67;17.67;;;;;;;;;;4991004;28;20709;-71
2021/11/14 00:43:30;;;;;;;18.50;16.10;;;;;;;;;;4995181;28;20189;-71
2021/11/14 00:45:55;;;;;;;19.77;15.97;;;;;;;;;;4987508;28;20541;-71
2021/11/14 00:48:21;;;;;;;19.93;16.70;;;;;;;;;;4993093;28;20201;-70
2021/11/14 00:50:47;;;;;;;25.23;17.40;;;;;;;;;;4994116;28;20302;-70
2021/11/14 00:53:13;;;;;;;22.50;15.87;;;;;;;;;;4990450;28;20181;-71
2021/11/14 00:55:39;;;;;;;22.53;16.70;;;;;;;;;;4990713;28;20870;-71
2021/11/14 00:58:04;;;;;;;26.67;17.60;;;;;;;;;;4990215;28;20581;-71
2021/11/14 01:00:30;;;;;;;23.47;17.23;;;;;;;;;;4993309;28;20189;-70
2021/11/14 01:02:56;;;;;;;24.43;17.43;;;;;;;;;;5000291;28;20188;-71
2021/11/14 01:05:21;;;;;;;24.37;17.63;;;;;;;;;;4985367;28;20193;-71
2021/11/14 01:07:47;;;;;;;21.40;17.00;;;;;;;;;;4990204;28;20579;-71
2021/11/14 01:10:13;;;;;;;25.33;19.03;;;;;;;;;;4988767;28;20188;-71
2021/11/14 01:12:39;;;;;;;27.73;19.60;;;;;;;;;;4994325;28;20229;-70
2021/11/14 01:15:05;;;;;;;26.57;18.50;;;;;;;;;;4989968;28;20990;-71
2021/11/14 01:17:30;;;;;;;26.83;19.17;;;;;;;;;;4995226;28;20547;-71
2021/11/14 01:19:57;;;;;;;26.33;18.60;;;;;;;;;;4996135;28;20188;-71
2021/11/14 01:22:22;;;;;;;24.93;18.87;;;;;;;;;;4989690;28;20193;-70
2021/11/14 01:24:48;;;;;;;30.57;19.90;;;;;;;;;;4990151;28;20437;-71
2021/11/14 01:27:14;;;;;;;30.80;20.97;;;;;;;;;;4990474;28;20589;-71
2021/11/14 01:29:39;;;;;;;27.97;21.07;;;;;;;;;;4991155;28;20185;-71
2021/11/14 01:32:05;;;;;;;29.77;21.87;;;;;;;;;;4991930;28;20526;-71
2021/11/14 01:34:30;;;;;;;33.63;21.73;;;;;;;;;;4989853;28;20184;-71
2021/11/14 01:36:55;;;;;;;30.90;21.20;;;;;;;;;;4989981;28;20239;-71
2021/11/14 01:39:21;;;;;;;32.03;21.27;;;;;;;;;;4988410;28;20193;-70
2021/11/14 01:41:46;;;;;;;31.53;21.73;;;;;;;;;;4993643;28;20601;-71
2021/11/14 01:44:13;;;;;;;32.70;21.83;;;;;;;;;;4993819;28;20189;-71
2021/11/14 01:46:39;;;;;;;31.50;21.63;;;;;;;;;;4991879;28;20551;-70
2021/11/14 01:49:04;;;;;;;33.43;22.77;;;;;;;;;;4990353;28;20456;-71
2021/11/14 01:51:30;;;;;;;33.10;23.13;;;;;;;;;;4986996;28;20219;-71
2021/11/14 01:53:55;;;;;;;36.23;22.50;;;;;;;;;;4990727;28;20217;-71
2021/11/14 01:56:21;;;;;;;35.33;23.67;;;;;;;;;;4991996;28;20185;-71
2021/11/14 01:58:46;;;;;;;39.70;24.03;;;;;;;;;;4987519;28;20206;-70
2021/11/14 02:01:14;;;;;;;31.20;22.57;;;;;;;;;;4991311;28;20200;-71
2021/11/14 02:03:41;;;;;;;33.50;22.63;;;;;;;;;;4994413;28;20182;-71
2021/11/14 02:06:07;;;;;;;31.17;21.33;;;;;;;;;;4988853;28;20486;-70
2021/11/14 02:08:36;;;;;;;33.97;22.70;;;;;;;;;;4990422;28;20464;-71
2021/11/14 02:11:02;;;;;;;29.73;20.37;;;;;;;;;;4990276;28;20193;-71
2021/11/14 02:13:28;;;;;;;31.77;19.90;;;;;;;;;;4987555;28;20479;-70
2021/11/14 02:15:54;;;;;;;28.77;19.60;;;;;;;;;;4992299;28;20181;-71
2021/11/14 02:18:20;;;;;;;28.87;20.10;;;;;;;;;;4991163;28;20215;-70
2021/11/14 02:20:45;;;;;;;30.73;20.83;;;;;;;;;;4991772;28;20433;-71
2021/11/14 02:23:13;;;;;;;22.33;17.53;;;;;;;;;;4989975;28;20734;-71
2021/11/14 02:25:39;;;;;;;25.50;19.13;;;;;;;;;;4991335;28;20440;-71
2021/11/14 02:28:04;;;;;;;22.80;18.63;;;;;;;;;;4992368;28;20535;-71
2021/11/14 02:30:30;;;;;;;24.93;18.20;;;;;;;;;;4987834;28;20185;-71
2021/11/14 02:32:55;;;;;;;22.10;17.07;;;;;;;;;;4988924;28;20575;-71
2021/11/14 02:35:21;;;;;;;21.80;16.20;;;;;;;;;;4993013;28;21775;-71
2021/11/14 02:37:47;;;;;;;24.93;17.57;;;;;;;;;;4995962;28;20212;-71
2021/11/14 02:40:13;;;;;;;22.03;16.40;;;;;;;;;;4999558;28;20459;-71
2021/11/14 02:42:40;;;;;;;21.60;16.10;;;;;;;;;;4992246;28;20684;-71
2021/11/14 02:45:08;;;;;;;22.30;17.17;;;;;;;;;;4995730;28;20480;-70
2021/11/14 02:47:34;;;;;;;21.50;15.57;;;;;;;;;;4996372;28;20463;-71
2021/11/14 02:49:59;;;;;;;20.73;15.77;;;;;;;;;;4997203;28;20440;-71
2021/11/14 02:52:24;;;;;;;23.03;16.87;;;;;;;;;;4996207;28;20217;-71
2021/11/14 02:54:49;;;;;;;20.37;16.27;;;;;;;;;;4998333;28;20563;-71
2021/11/14 02:57:15;;;;;;;20.67;15.90;;;;;;;;;;4999844;28;20201;-71
2021/11/14 02:59:40;;;;;;;21.40;15.63;;;;;;;;;;4992363;28;20563;-71
2021/11/14 03:02:06;;;;;;;19.50;14.93;;;;;;;;;;4995335;28;20181;-71
2021/11/14 03:04:31;;;;;;;21.80;15.90;;;;;;;;;;5000342;28;20172;-71
2021/11/14 03:06:57;;;;;;;19.57;15.40;;;;;;;;;;4995125;28;20189;-71
2021/11/14 03:09:23;;;;;;;20.07;14.77;;;;;;;;;;4997519;28;20180;-71
2021/11/14 03:11:49;;;;;;;20.43;15.10;;;;;;;;;;4996449;28;20262;-71
2021/11/14 03:14:14;;;;;;;19.87;16.10;;;;;;;;;;4993421;28;20880;-71
2021/11/14 03:16:39;;;;;;;19.33;15.53;;;;;;;;;;4994808;28;20437;-71
2021/11/14 03:19:05;;;;;;;18.00;13.80;;;;;;;;;;4998979;28;20224;-71
2021/11/14 03:21:30;;;;;;;20.67;16.27;;;;;;;;;;4998007;28;20226;-71
2021/11/14 03:23:56;;;;;;;18.30;15.10;;;;;;;;;;5000526;28;20177;-71
2021/11/14 03:26:22;;;;;;;20.13;15.23;;;;;;;;;;4998027;28;20177;-70
2021/11/14 03:28:47;;;;;;;17.27;13.77;;;;;;;;;;4994518;28;20187;-71
2021/11/14 03:31:13;;;;;;;17.60;14.77;;;;;;;;;;4996042;28;20958;-71
2021/11/14 03:33:38;;;;;;;20.20;15.00;;;;;;;;;;4995867;28;20635;-71
2021/11/14 03:36:08;;;;;;;17.53;14.77;;;;;;;;;;4999964;28;20181;-71
2021/11/14 03:39:00;;;;;;;17.23;13.70;;;;;;;;;;4994554;28;20669;-71
2021/11/14 03:41:27;;;;;;;17.20;14.67;;;;;;;;;;4994243;28;20448;-71
2021/11/14 03:43:53;;;;;;;18.83;15.23;;;;;;;;;;4993380;28;20460;-71
2021/11/14 03:46:19;;;;;;;17.70;14.23;;;;;;;;;;4994911;28;20492;-70
2021/11/14 03:48:45;;;;;;;23.07;15.37;;;;;;;;;;4990163;28;20228;-71
2021/11/14 03:51:11;;;;;;;25.27;18.67;;;;;;;;;;4993672;28;20619;-71
2021/11/14 03:53:36;;;;;;;26.97;17.47;;;;;;;;;;4991450;28;20915;-71
2021/11/14 03:56:02;;;;;;;25.43;18.03;;;;;;;;;;4997002;28;20178;-71
2021/11/14 03:58:28;;;;;;;25.33;19.17;;;;;;;;;;4992465;28;20204;-71
2021/11/14 04:00:54;;;;;;;28.70;18.90;;;;;;;;;;4993016;28;20436;-71
2021/11/14 04:03:20;;;;;;;24.63;18.43;;;;;;;;;;4991556;28;20185;-71
2021/11/14 04:05:46;;;;;;;25.87;19.40;;;;;;;;;;4991443;28;20428;-71
2021/11/14 04:08:16;;;;;;;27.43;19.97;;;;;;;;;;4995950;28;20201;-71
2021/11/14 04:10:42;;;;;;;30.10;21.27;;;;;;;;;;4991839;28;20185;-71
2021/11/14 04:13:07;;;;;;;30.03;21.40;;;;;;;;;;4992255;28;20471;-71
2021/11/14 04:15:32;;;;;;;27.37;19.00;;;;;;;;;;4991149;28;21539;-70
2021/11/14 04:17:58;;;;;;;26.03;19.07;;;;;;;;;;4991354;28;20563;-70
2021/11/14 04:20:27;;;;;;;28.93;19.67;;;;;;;;;;4988227;28;20197;-71
2021/11/14 04:22:53;;;;;;;27.27;19.93;;;;;;;;;;4991426;28;20212;-71
2021/11/14 04:25:18;;;;;;;23.80;17.97;;;;;;;;;;4993084;28;20443;-71
2021/11/14 04:27:43;;;;;;;22.57;16.97;;;;;;;;;;4990330;28;20209;-71
2021/11/14 04:30:09;;;;;;;23.57;16.87;;;;;;;;;;4991711;28;20184;-71
2021/11/14 04:32:35;;;;;;;24.97;18.00;;;;;;;;;;4992197;28;20209;-71
2021/11/14 04:35:00;;;;;;;22.60;17.53;;;;;;;;;;4990060;28;20276;-71
2021/11/14 04:37:25;;;;;;;22.30;16.90;;;;;;;;;;4990574;28;20212;-71
2021/11/14 04:39:50;;;;;;;22.90;16.63;;;;;;;;;;4991669;28;20232;-71
2021/11/14 04:42:16;;;;;;;25.97;18.40;;;;;;;;;;4993307;28;20186;-71
2021/11/14 04:44:41;;;;;;;25.03;18.00;;;;;;;;;;4990859;28;21399;-70
2021/11/14 04:47:06;;;;;;;21.97;17.37;;;;;;;;;;4990476;28;20209;-71
2021/11/14 04:49:32;;;;;;;23.20;15.87;;;;;;;;;;4991984;28;20671;-71
2021/11/14 04:51:57;;;;;;;20.50;14.60;;;;;;;;;;4987883;28;20209;-70
2021/11/14 04:54:22;;;;;;;19.37;14.53;;;;;;;;;;4993188;28;20280;-71
2021/11/14 04:56:48;;;;;;;21.47;16.60;;;;;;;;;;4989943;28;20177;-70
2021/11/14 04:59:14;;;;;;;22.00;15.87;;;;;;;;;;4989173;28;20265;-71
2021/11/14 05:01:40;;;;;;;18.27;14.77;;;;;;;;;;4990954;28;20577;-71
2021/11/14 05:04:05;;;;;;;22.83;15.77;;;;;;;;;;4990080;28;20197;-71
2021/11/14 05:06:30;;;;;;;21.30;13.97;;;;;;;;;;4993525;28;20188;-71
2021/11/14 05:08:56;;;;;;;18.47;14.60;;;;;;;;;;4990427;28;20204;-71
2021/11/14 05:11:21;;;;;;;22.83;15.87;;;;;;;;;;4988783;28;20606;-71
2021/11/14 05:13:46;;;;;;;19.80;15.27;;;;;;;;;;4989218;28;20217;-71
2021/11/14 05:16:12;;;;;;;19.50;15.17;;;;;;;;;;4992428;28;20184;-71
2021/11/14 05:18:37;;;;;;;24.13;16.50;;;;;;;;;;4989321;28;20230;-71
2021/11/14 05:21:03;;;;;;;23.00;16.20;;;;;;;;;;4993263;28;20254;-71
2021/11/14 05:23:28;;;;;;;22.90;16.70;;;;;;;;;;4987775;28;20209;-71
2021/11/14 05:25:53;;;;;;;21.93;15.60;;;;;;;;;;4996087;28;20180;-71
2021/11/14 05:28:18;;;;;;;20.93;16.20;;;;;;;;;;4991618;28;20210;-71
2021/11/14 05:30:44;;;;;;;21.17;16.80;;;;;;;;;;4989209;28;20182;-71
2021/11/14 05:33:09;;;;;;;23.10;16.27;;;;;;;;;;4987751;28;20243;-71
2021/11/14 05:35:34;;;;;;;23.17;17.77;;;;;;;;;;4993643;28;20193;-71
2021/11/14 05:38:00;;;;;;;28.73;17.97;;;;;;;;;;4991019;28;20220;-71
2021/11/14 05:40:25;;;;;;;22.10;16.80;;;;;;;;;;4990556;28;20200;-71
2021/11/14 05:42:50;;;;;;;22.53;15.10;;;;;;;;;;4989563;28;20181;-71
2021/11/14 05:45:16;;;;;;;24.27;16.97;;;;;;;;;;4989975;28;20197;-71
2021/11/14 05:47:41;;;;;;;20.53;16.03;;;;;;;;;;4986646;28;20608;-71
2021/11/14 05:50:07;;;;;;;22.97;16.00;;;;;;;;;;4997269;28;20185;-71
2021/11/14 05:52:33;;;;;;;19.90;15.20;;;;;;;;;;4990037;28;21112;-71
2021/11/14 05:54:58;;;;;;;21.07;15.60;;;;;;;;;;4989092;28;20522;-71
2021/11/14 05:57:24;;;;;;;19.03;15.47;;;;;;;;;;4986196;28;20226;-71
2021/11/14 06:07:29;;;;;;;18.83;14.90;;;;;;;;;;4990757;28;20577;-71
2021/11/14 06:09:55;;;;;;;19.80;16.10;;;;;;;;;;4988204;28;20413;-71
2021/11/14 06:12:20;;;;;;;22.00;16.00;;;;;;;;;;4988118;28;20482;-71
2021/11/14 06:14:46;;;;;;;22.20;17.07;;;;;;;;;;4990610;28;20177;-71
2021/11/14 06:17:11;;;;;;;20.20;16.23;;;;;;;;;;4988754;28;20878;-72
2021/11/14 06:19:36;;;;;;;20.37;16.33;;;;;;;;;;4987353;28;20185;-71
2021/11/14 06:22:01;;;;;;;20.60;16.40;;;;;;;;;;4990075;28;20190;-71
2021/11/14 06:24:27;;;;;;;20.97;17.60;;;;;;;;;;4989701;28;20178;-71
2021/11/14 06:26:52;;;;;;;23.03;18.33;;;;;;;;;;4987304;28;20178;-71
2021/11/14 06:29:17;;;;;;;18.10;15.60;;;;;;;;;;4988713;28;20174;-72
2021/11/14 06:31:42;;;;;;;20.97;16.63;;;;;;;;;;4988465;28;20583;-71
2021/11/14 06:34:08;;;;;;;24.20;17.23;;;;;;;;;;4989381;28;20197;-71
2021/11/14 06:36:33;;;;;;;23.10;18.23;;;;;;;;;;4990806;28;20173;-72
2021/11/14 06:38:58;;;;;;;24.00;18.00;;;;;;;;;;4987861;28;20214;-71
2021/11/14 06:41:24;;;;;;;25.00;18.00;;;;;;;;;;4991437;28;20222;-72
2021/11/14 06:43:49;;;;;;;25.80;19.25;;;;;;;;;;4991851;28;20169;-72
2021/11/14 06:46:15;;;;;;;24.93;18.27;;;;;;;;;;4986884;28;20181;-70
2021/11/14 06:48:40;;;;;;;25.80;19.70;;;;;;;;;;4989718;28;20332;-71
2021/11/14 06:51:06;;;;;;;27.67;19.80;;;;;;;;;;4990502;28;20522;-70
2021/11/14 06:53:31;;;;;;;25.83;18.33;;;;;;;;;;4984183;28;20206;-71
2021/11/14 06:55:57;;;;;;;27.90;19.77;;;;;;;;;;4986062;28;20170;-71
2021/11/14 06:58:22;;;;;;;28.60;19.80;;;;;;;;;;4983749;28;20197;-70
2021/11/14 07:00:47;;;;;;;26.63;20.10;;;;;;;;;;4991658;28;20166;-71
2021/11/14 07:03:14;;;;;;;28.47;19.87;;;;;;;;;;4992741;28;20203;-70
2021/11/14 07:05:39;;;;;;;27.00;19.10;;;;;;;;;;4991116;28;20794;-71
2021/11/14 07:08:04;;;;;;;29.40;21.03;;;;;;;;;;4988935;28;20472;-70
2021/11/14 07:10:30;;;;;;;31.57;20.50;;;;;;;;;;4991617;28;20260;-71
2021/11/14 07:12:55;;;;;;;30.83;21.20;;;;;;;;;;4986106;28;20579;-71
2021/11/14 07:15:21;;;;;;;30.97;20.37;;;;;;;;;;4988801;28;20178;-71
2021/11/14 07:17:47;;;;;;;28.63;20.37;;;;;;;;;;4990042;28;20212;-71
2021/11/14 07:20:13;;;;;;;27.83;19.33;;;;;;;;;;4988960;28;20424;-70
2021/11/14 07:22:38;;;;;;;31.70;20.13;;;;;;;;;;4991061;28;20648;-70
2021/11/14 07:25:04;;;;;;;29.07;19.70;;;;;;;;;;4995197;28;20450;-71
2021/11/14 07:27:29;;;;;;;32.13;24.00;;;;;;;;;;4989879;28;20204;-71
2021/11/14 07:29:54;;;;;;;30.37;21.00;;;;;;;;;;4992389;28;20436;-71
2021/11/14 07:32:20;;;;;;;27.37;18.70;;;;;;;;;;4990602;28;20979;-71
2021/11/14 07:34:45;;;;;;;27.97;20.40;;;;;;;;;;4993954;28;20182;-71
2021/11/14 07:37:11;;;;;;;31.05;20.50;;;;;;;;;;4997585;28;20189;-71
2021/11/14 07:39:36;;;;;;;30.50;21.33;;;;;;;;;;4990335;28;20223;-70
2021/11/14 07:42:01;;;;;;;32.07;22.23;;;;;;;;;;4995670;28;20180;-71
2021/11/14 07:44:26;;;;;;;27.57;20.00;;;;;;;;;;4992030;28;20672;-71
2021/11/14 07:46:52;;;;;;;25.70;18.43;;;;;;;;;;4990141;28;20594;-71
2021/11/14 07:49:17;;;;;;;26.43;19.57;;;;;;;;;;4995104;28;20177;-71
2021/11/14 07:51:43;;;;;;;30.13;20.60;;;;;;;;;;4994841;28;20224;-71
2021/11/14 07:54:08;;;;;;;28.43;19.43;;;;;;;;;;4997763;28;20174;-70
2021/11/14 07:56:33;;;;;;;39.50;24.50;;;;;;;;;;4991386;28;20185;-71
2021/11/14 07:58:59;;;;;;;34.83;22.00;;;;;;;;;;4993795;28;20188;-71
2021/11/14 08:01:24;;;;;;;29.00;20.10;;;;;;;;;;4989100;28;20186;-71
2021/11/14 08:03:52;;;;;;;25.80;19.23;;;;;;;;;;4994403;28;20186;-70
2021/11/14 08:06:18;;;;;;;30.37;19.60;;;;;;;;;;4994829;28;20265;-71
2021/11/14 08:08:43;;;;;;;28.43;19.87;;;;;;;;;;4993379;28;20452;-70
2021/11/14 08:11:08;;;;;;;33.90;21.10;;;;;;;;;;4994581;28;20439;-70
2021/11/14 08:13:34;;;;;;;28.40;19.03;;;;;;;;;;4998603;28;20206;-71
2021/11/14 08:15:59;;;;;;;29.83;19.53;;;;;;;;;;4994105;28;20181;-70
2021/11/14 08:18:25;;;;;;;33.10;21.87;;;;;;;;;;4991925;28;20209;-71
2021/11/14 08:20:50;;;;;;;31.07;19.30;;;;;;;;;;4989663;28;20667;-71
2021/11/14 08:23:16;;;;;;;31.60;21.10;;;;;;;;;;4995361;28;20219;-71
2021/11/14 08:25:42;;;;;;;32.60;20.23;;;;;;;;;;4993722;28;20424;-71
2021/11/14 08:28:07;;;;;;;28.20;18.80;;;;;;;;;;4991685;28;20237;-71
2021/11/14 08:30:32;;;;;;;30.90;20.00;;;;;;;;;;4987046;28;20483;-71
2021/11/14 08:32:58;;;;;;;27.70;19.80;;;;;;;;;;4985801;28;20296;-71
2021/11/14 08:35:23;;;;;;;;;;;;;;;;;;4993498;28;20268;-71
2021/11/14 08:37:50;;;;;;;29.05;19.35;;;;;;;;;;5005276;28;20233;-71
2021/11/14 08:40:16;;;;;;;31.17;20.13;;;;;;;;;;5010510;28;20251;-71
2021/11/14 08:42:42;;;;;;;32.50;19.40;;;;;;;;;;4996442;28;21412;-71
2021/11/14 08:45:07;;;;;;;;;;;;;;;;;;4992952;28;19946;-71
2021/11/14 08:47:33;;;;;;;25.27;17.77;;;;;;;;;;4982343;28;19924;-71
2021/11/14 08:49:58;;;;;;;34.03;20.90;;;;;;;;;;4988725;28;20691;-71
2021/11/14 08:52:23;;;;;;;28.70;19.17;;;;;;;;;;4985091;28;20208;-71
2021/11/14 08:54:48;;;;;;;28.60;19.40;;;;;;;;;;4988705;28;20319;-70
2021/11/14 08:57:17;;;;;;;30.90;19.93;;;;;;;;;;4994686;28;20577;-70
2021/11/14 08:59:43;;;;;;;37.13;23.60;;;;;;;;;;4990550;28;20562;-70
2021/11/14 09:02:09;;;;;;;59.40;30.60;;;;;;;;;;4992224;28;20444;-70
2021/11/14 09:04:34;;;;;;;;;;;;;;;;;;4996218;28;20257;-70
2021/11/14 09:06:59;;;;;;;33.70;21.50;;;;;;;;;;4988242;28;19914;-71
2021/11/14 09:09:24;;;;;;;;;;;;;;;;;;4989421;28;20382;-71
2021/11/14 09:11:50;;;;;;;33.60;21.00;;;;;;;;;;4991137;28;19914;-70
2021/11/14 09:14:15;;;;;;;33.70;20.20;;;;;;;;;;4995183;28;20200;-70
2021/11/14 09:16:41;;;;;;;34.97;20.17;;;;;;;;;;4990526;28;21041;-70
2021/11/14 09:19:07;;;;;;;32.90;20.93;;;;;;;;;;4993051;28;20197;-70
2021/11/14 09:21:34;;;;;;;32.53;20.37;;;;;;;;;;4991278;28;20362;-70
2021/11/14 09:23:59;;;;;;;33.47;19.63;;;;;;;;;;4993642;28;20951;-70
2021/11/14 09:26:24;;;;;;;31.77;19.00;;;;;;;;;;4992748;28;20453;-70
2021/11/14 09:28:50;;;;;;;31.03;19.33;;;;;;;;;;4987164;28;20243;-70
2021/11/14 09:31:15;;;;;;;32.37;19.10;;;;;;;;;;4987479;28;20190;-71
2021/11/14 09:33:41;;;;;;;32.17;19.20;;;;;;;;;;4990305;28;20227;-71
2021/11/14 09:36:07;;;;;;;35.07;20.63;;;;;;;;;;4992769;28;20177;-70
2021/11/14 09:38:32;;;;;;;33.60;19.40;;;;;;;;;;4988074;28;21021;-70
2021/11/14 09:40:58;;;;;;;34.70;19.93;;;;;;;;;;4986300;28;20185;-70
2021/11/14 09:43:23;;;;;;;33.50;19.60;;;;;;;;;;4986113;28;20185;-71
2021/11/14 09:45:51;;;;;;;31.93;20.80;;;;;;;;;;4987433;28;20206;-71
2021/11/14 09:48:16;;;;;;;34.53;20.67;;;;;;;;;;5001699;28;20204;-71
2021/11/14 09:50:41;;;;;;;30.57;18.37;;;;;;;;;;4992819;28;20502;-70
2021/11/14 09:53:08;;;;;;;32.35;19.80;;;;;;;;;;4991674;28;20217;-71
2021/11/14 09:55:36;;;;;;;29.70;18.37;;;;;;;;;;4989418;28;20232;-69
2021/11/14 09:58:05;;;;;;;30.63;19.47;;;;;;;;;;4989335;28;20499;-70
2021/11/14 10:00:30;;;;;;;28.87;18.20;;;;;;;;;;4988784;28;20428;-70
2021/11/14 10:02:56;;;;;;;30.10;16.27;;;;;;;;;;4988607;28;20463;-70
2021/11/14 10:05:21;;;;;;;27.67;17.13;;;;;;;;;;4996042;28;20181;-71
2021/11/14 10:07:57;;;;;;;29.47;18.77;;;;;;;;;;4989319;28;20577;-71
2021/11/14 10:10:23;;;;;;;28.83;18.27;;;;;;;;;;4990854;28;20169;-69
2021/11/14 10:12:49;;;;;;;35.47;18.10;;;;;;;;;;4989266;28;20990;-70
2021/11/14 10:15:16;;;;;;;28.80;17.90;;;;;;;;;;4989047;28;20474;-72
2021/11/14 10:17:48;;;;;;;30.60;17.83;;;;;;;;;;4987383;28;20636;-71
2021/11/14 10:20:31;;;;;;;29.60;18.70;;;;;;;;;;4988883;28;20487;-70
2021/11/14 10:22:58;;;;;;;27.93;18.20;;;;;;;;;;4989166;28;20544;-71
2021/11/14 10:25:24;;;;;;;30.30;18.40;;;;;;;;;;4989726;28;20471;-71
2021/11/14 10:27:53;;;;;;;30.70;17.60;;;;;;;;;;4987811;28;20456;-71
2021/11/14 10:30:24;;;;;;;30.93;18.50;;;;;;;;;;4984709;28;20483;-70
2021/11/14 10:32:50;;;;;;;32.40;17.33;;;;;;;;;;4985950;28;20475;-70
2021/11/14 10:35:15;;;;;;;31.63;19.13;;;;;;;;;;4990333;28;20521;-70
2021/11/14 10:37:45;;;;;;;34.85;19.55;;;;;;;;;;4993308;28;20490;-71
2021/11/14 10:40:21;;;;;;;27.30;19.00;;;;;;;;;;4993717;28;20189;-71
2021/11/14 10:42:48;;;;;;;33.20;18.53;;;;;;;;;;4992674;28;20791;-71
2021/11/14 10:45:13;;;;;;;27.37;16.80;;;;;;;;;;4986106;28;21246;-71
2021/11/14 10:47:39;;;;;;;30.77;17.63;;;;;;;;;;4989369;28;20463;-71
2021/11/14 10:50:10;;;;;;;33.77;20.67;;;;;;;;;;4989959;28;20190;-71
2021/11/14 10:52:36;;;;;;;29.00;18.70;;;;;;;;;;4992244;28;20208;-71
2021/11/14 10:55:06;;;;;;;28.80;17.80;;;;;;;;;;4992106;28;20424;-71
2021/11/14 10:57:32;;;;;;;29.23;16.40;;;;;;;;;;4994421;28;20457;-71
2021/11/14 10:59:58;;;;;;;25.93;16.77;;;;;;;;;;4999759;28;20435;-71
2021/11/14 11:02:25;;;;;;;23.77;15.17;;;;;;;;;;5000486;28;20192;-71
2021/11/14 11:04:50;;;;;;;25.57;15.40;;;;;;;;;;4999034;28;20935;-71
2021/11/14 11:07:16;;;;;;;25.30;16.07;;;;;;;;;;4995793;28;20470;-71
2021/11/14 11:09:43;;;;;;;23.17;14.80;;;;;;;;;;5001620;28;20514;-70
2021/11/14 11:12:21;;;;;;;20.00;12.37;;;;;;;;;;4996618;28;20471;-71
2021/11/14 11:14:51;;;;;;;20.10;11.80;;;;;;;;;;5016077;28;20857;-71
2021/11/14 11:17:16;;;;;;;21.55;13.30;;;;;;;;;;5002270;28;20454;-71
2021/11/14 11:19:41;;;;;;;23.60;12.27;;;;;;;;;;4994998;28;20490;-71
2021/11/14 11:22:07;;;;;;;20.70;13.10;;;;;;;;;;4993813;28;20197;-71
2021/11/14 11:24:32;;;;;;;23.83;14.37;;;;;;;;;;4999995;28;20189;-71
2021/11/14 11:26:59;;;;;;;25.10;15.30;;;;;;;;;;5001137;28;20200;-71
2021/11/14 11:29:25;;;;;;;26.30;16.20;;;;;;;;;;4998858;28;20192;-71
2021/11/14 11:31:52;;;;;;;21.60;14.20;;;;;;;;;;4997212;28;20978;-71
2021/11/14 11:34:18;;;;;;;25.40;14.30;;;;;;;;;;4995486;28;20434;-71
2021/11/14 11:36:44;;;;;;;25.50;14.90;;;;;;;;;;4997966;28;20432;-71
2021/11/14 11:39:10;;;;;;;28.07;16.00;;;;;;;;;;4993389;28;20467;-71
2021/11/14 11:41:36;;;;;;;30.03;17.37;;;;;;;;;;4996433;28;20436;-71
2021/11/14 11:44:02;;;;;;;32.23;18.00;;;;;;;;;;4986891;28;20209;-71
2021/11/14 11:46:29;;;;;;;36.60;20.00;;;;;;;;;;4989981;28;21024;-71
2021/11/14 11:48:55;;;;;;;37.37;21.30;;;;;;;;;;4993345;28;20240;-71
2021/11/14 11:51:28;;;;;;;32.70;20.27;;;;;;;;;;4990755;28;20419;-71
2021/11/14 11:54:04;;;;;;;35.15;19.80;;;;;;;;;;4987667;28;21310;-72
2021/11/14 11:56:35;;;;;;;35.17;20.23;;;;;;;;;;4986163;28;21212;-71
2021/11/14 11:59:00;;;;;;;33.07;18.50;;;;;;;;;;4992230;28;20466;-71
2021/11/14 12:01:27;;;;;;;30.97;18.50;;;;;;;;;;4990392;28;20436;-72
2021/11/14 12:03:53;;;;;;;33.20;19.57;;;;;;;;;;4993847;28;20196;-72
2021/11/14 12:06:24;;;;;;;30.20;18.47;;;;;;;;;;4982386;28;20436;-71
2021/11/14 12:08:57;;;;;;;36.23;19.43;;;;;;;;;;4985022;28;20528;-71
2021/11/14 12:11:25;;;;;;;33.53;19.00;;;;;;;;;;4989848;28;20440;-72
2021/11/14 12:13:50;;;;;;;30.90;17.00;;;;;;;;;;4992518;28;20515;-72
2021/11/14 12:16:45;;;;;;;31.43;17.90;;;;;;;;;;4991034;28;20523;-71
2021/11/14 12:19:19;;;;;;;28.37;16.93;;;;;;;;;;4986590;28;20264;-71
2021/11/14 12:21:52;;;;;;;24.80;15.63;;;;;;;;;;4992674;28;20460;-71
2021/11/14 12:24:17;;;;;;;27.93;16.30;;;;;;;;;;4994938;28;20852;-70
2021/11/14 12:26:43;;;;;;;30.53;18.00;;;;;;;;;;4996237;28;20544;-71
2021/11/14 12:29:08;;;;;;;29.20;18.60;;;;;;;;;;4991734;28;20569;-71
2021/11/14 12:31:52;;;;;;;29.10;18.20;;;;;;;;;;4994560;28;20213;-71
2021/11/14 12:34:22;;;;;;;28.27;18.23;;;;;;;;;;4993257;28;20436;-71
2021/11/14 12:36:47;;;;;;;30.47;18.30;;;;;;;;;;4999733;28;20503;-71
2021/11/14 12:39:18;;;;;;;28.23;18.20;;;;;;;;;;4994281;28;20591;-71
2021/11/14 12:41:49;;;;;;;28.73;17.47;;;;;;;;;;4997059;28;20260;-71
2021/11/14 12:44:24;;;;;;;32.40;18.43;;;;;;;;;;4992690;28;20437;-71
2021/11/14 12:46:49;;;;;;;25.60;17.03;;;;;;;;;;4993631;28;20436;-71
2021/11/14 12:49:15;;;;;;;29.70;18.40;;;;;;;;;;4993502;28;20923;-71
2021/11/14 12:51:40;;;;;;;28.77;17.90;;;;;;;;;;4992602;28;20399;-70
2021/11/14 12:54:13;;;;;;;26.83;17.50;;;;;;;;;;4993707;28;20178;-71
2021/11/14 12:56:43;;;;;;;31.27;19.67;;;;;;;;;;4995572;28;20664;-71
2021/11/14 12:59:16;;;;;;;32.43;21.23;;;;;;;;;;4994474;28;20865;-71
2021/11/14 13:01:41;;;;;;;32.10;21.40;;;;;;;;;;4995559;28;20532;-71
2021/11/14 13:04:07;;;;;;;34.77;20.80;;;;;;;;;;4995921;28;20435;-71
2021/11/14 13:06:34;;;;;;;34.33;21.30;;;;;;;;;;4992034;28;20188;-71
2021/11/14 13:09:06;;;;;;;29.83;20.97;;;;;;;;;;4993233;28;20680;-70
2021/11/14 13:11:32;;;;;;;34.30;22.90;;;;;;;;;;4989835;28;20470;-71
2021/11/14 13:14:05;;;;;;;34.10;21.80;;;;;;;;;;4990287;28;20535;-72
2021/11/14 13:16:31;;;;;;;32.03;21.63;;;;;;;;;;4990506;28;20427;-70
2021/11/14 13:18:57;;;;;;;34.03;23.90;;;;;;;;;;4989108;28;20482;-71
2021/11/14 13:21:24;;;;;;;36.77;23.57;;;;;;;;;;4992755;28;20436;-71
2021/11/14 13:23:58;;;;;;;35.17;22.87;;;;;;;;;;4991822;28;20437;-71
2021/11/14 13:26:30;;;;;;;33.30;22.97;;;;;;;;;;4992875;28;20459;-71
2021/11/14 13:28:55;;;;;;;35.80;23.27;;;;;;;;;;4995913;28;20447;-70
2021/11/14 13:31:22;;;;;;;35.87;23.90;;;;;;;;;;4994513;28;20420;-68
2021/11/14 13:33:58;;;;;;;40.70;24.77;;;;;;;;;;4993808;28;20182;-71
2021/11/14 13:36:23;;;;;;;37.70;25.57;;;;;;;;;;4992694;28;20432;-71
2021/11/14 13:38:49;;;;;;;39.33;24.77;;;;;;;;;;4994944;28;21920;-71
2021/11/14 13:41:21;;;;;;;39.83;25.50;;;;;;;;;;4995290;28;20682;-71
2021/11/14 13:43:53;;;;;;;40.33;26.50;;;;;;;;;;4991045;28;20181;-71
2021/11/14 13:46:19;;;;;;;48.03;29.60;;;;;;;;;;4996044;28;20424;-71
2021/11/14 13:48:47;;;;;;;44.50;29.93;;;;;;;;;;4994444;28;20467;-70
2021/11/14 13:51:12;;;;;;;45.27;30.60;;;;;;;;;;4992071;28;20648;-71
2021/11/14 13:53:38;;;;;;;45.33;29.07;;;;;;;;;;4994349;28;20478;-71
2021/11/14 13:56:05;;;;;;;48.40;30.20;;;;;;;;;;4993222;28;20715;-70
2021/11/14 13:58:41;;;;;;;45.90;30.70;;;;;;;;;;4992287;28;20202;-71
2021/11/14 14:01:08;;;;;;;47.30;31.23;;;;;;;;;;4989304;28;20428;-70
2021/11/14 14:03:38;;;;;;;50.97;31.47;;;;;;;;;;4991031;28;20432;-71
2021/11/14 14:06:06;;;;;;;48.47;31.00;;;;;;;;;;4991717;28;20437;-71
2021/11/14 14:08:32;;;;;;;48.93;30.67;;;;;;;;;;4996549;28;20895;-70
2021/11/14 14:10:58;;;;;;;45.07;31.10;;;;;;;;;;4988633;28;20466;-70
2021/11/14 14:13:24;;;;;;;48.50;30.63;;;;;;;;;;4986822;28;20448;-71
2021/11/14 14:15:49;;;;;;;43.83;31.40;;;;;;;;;;4983335;28;20442;-71
2021/11/14 14:18:19;;;;;;;47.57;31.00;;;;;;;;;;4987147;28;20222;-71
2021/11/14 14:20:46;;;;;;;47.47;30.40;;;;;;;;;;4974391;28;20619;-71
2021/11/14 14:23:11;;;;;;;51.43;33.67;;;;;;;;;;4985536;28;20457;-71